sensor_id;sensor_type;location;lat;lon;timestamp;temperature;humidity
53962;DHT22;39868;53.398;6.564;2022-07-12T00:00:12;19.10;75.40
53962;DHT22;39868;53.398;6.564;2022-07-12T00:02:40;19.10;75.30
53962;DHT22;39868;53.398;6.564;2022-07-12T00:05:07;19.10;75.30
53962;DHT22;39868;53.398;6.564;2022-07-12T00:07:35;19.00;75.30
53962;DHT22;39868;53.398;6.564;2022-07-12T00:10:03;19.00;75.30
53962;DHT22;39868;53.398;6.564;2022-07-12T00:12:31;19.00;75.40
53962;DHT22;39868;53.398;6.564;2022-07-12T00:14:58;19.00;75.40
53962;DHT22;39868;53.398;6.564;2022-07-12T00:17:26;19.00;75.40
53962;DHT22;39868;53.398;6.564;2022-07-12T00:19:53;19.00;75.40
53962;DHT22;39868;53.398;6.564;2022-07-12T00:22:21;19.00;75.40
53962;DHT22;39868;53.398;6.564;2022-07-12T00:24:49;19.00;75.40
53962;DHT22;39868;53.398;6.564;2022-07-12T00:27:16;18.90;75.30
53962;DHT22;39868;53.398;6.564;2022-07-12T00:29:44;18.90;75.90
53962;DHT22;39868;53.398;6.564;2022-07-12T00:32:11;18.90;75.30
53962;DHT22;39868;53.398;6.564;2022-07-12T00:34:39;18.90;75.30
53962;DHT22;39868;53.398;6.564;2022-07-12T00:37:07;18.90;75.40
53962;DHT22;39868;53.398;6.564;2022-07-12T00:39:34;18.90;75.50
53962;DHT22;39868;53.398;6.564;2022-07-12T00:42:02;18.90;75.50
53962;DHT22;39868;53.398;6.564;2022-07-12T00:44:30;18.90;75.50
53962;DHT22;39868;53.398;6.564;2022-07-12T00:47:01;18.80;75.40
53962;DHT22;39868;53.398;6.564;2022-07-12T00:49:30;18.90;75.50
53962;DHT22;39868;53.398;6.564;2022-07-12T00:51:58;18.80;75.50
53962;DHT22;39868;53.398;6.564;2022-07-12T00:54:25;18.80;75.50
53962;DHT22;39868;53.398;6.564;2022-07-12T00:56:53;18.80;75.60
53962;DHT22;39868;53.398;6.564;2022-07-12T00:59:21;18.80;75.50
53962;DHT22;39868;53.398;6.564;2022-07-12T01:01:48;18.80;75.50
53962;DHT22;39868;53.398;6.564;2022-07-12T01:04:19;18.80;75.50
53962;DHT22;39868;53.398;6.564;2022-07-12T01:06:46;18.80;75.60
53962;DHT22;39868;53.398;6.564;2022-07-12T01:09:14;18.70;75.60
53962;DHT22;39868;53.398;6.564;2022-07-12T01:11:42;18.70;75.70
53962;DHT22;39868;53.398;6.564;2022-07-12T01:14:10;18.70;75.70
53962;DHT22;39868;53.398;6.564;2022-07-12T01:16:38;18.70;75.80
53962;DHT22;39868;53.398;6.564;2022-07-12T01:19:06;18.70;75.80
53962;DHT22;39868;53.398;6.564;2022-07-12T01:21:37;18.70;75.90
53962;DHT22;39868;53.398;6.564;2022-07-12T01:24:07;18.70;76.00
53962;DHT22;39868;53.398;6.564;2022-07-12T01:26:36;18.70;76.00
53962;DHT22;39868;53.398;6.564;2022-07-12T01:29:05;18.70;76.00
53962;DHT22;39868;53.398;6.564;2022-07-12T01:31:34;18.70;76.00
53962;DHT22;39868;53.398;6.564;2022-07-12T01:34:03;18.70;76.00
53962;DHT22;39868;53.398;6.564;2022-07-12T01:36:30;18.70;76.00
53962;DHT22;39868;53.398;6.564;2022-07-12T01:38:58;18.70;76.00
53962;DHT22;39868;53.398;6.564;2022-07-12T01:41:26;18.70;75.90
53962;DHT22;39868;53.398;6.564;2022-07-12T01:43:54;18.70;75.90
53962;DHT22;39868;53.398;6.564;2022-07-12T01:46:22;18.70;75.90
53962;DHT22;39868;53.398;6.564;2022-07-12T01:48:49;18.70;75.90
53962;DHT22;39868;53.398;6.564;2022-07-12T01:51:17;18.60;75.80
53962;DHT22;39868;53.398;6.564;2022-07-12T01:53:44;18.70;75.80
53962;DHT22;39868;53.398;6.564;2022-07-12T01:56:12;18.60;76.30
53962;DHT22;39868;53.398;6.564;2022-07-12T01:58:39;18.60;75.80
53962;DHT22;39868;53.398;6.564;2022-07-12T02:01:09;18.60;75.70
53962;DHT22;39868;53.398;6.564;2022-07-12T02:03:37;18.60;75.70
53962;DHT22;39868;53.398;6.564;2022-07-12T02:06:05;18.60;75.60
53962;DHT22;39868;53.398;6.564;2022-07-12T02:08:32;18.60;75.60
53962;DHT22;39868;53.398;6.564;2022-07-12T02:11:00;18.60;75.60
53962;DHT22;39868;53.398;6.564;2022-07-12T02:13:27;18.50;75.50
53962;DHT22;39868;53.398;6.564;2022-07-12T02:15:54;18.50;75.60
53962;DHT22;39868;53.398;6.564;2022-07-12T02:18:22;18.50;75.60
53962;DHT22;39868;53.398;6.564;2022-07-12T02:20:49;18.50;75.70
53962;DHT22;39868;53.398;6.564;2022-07-12T02:23:17;18.50;75.80
53962;DHT22;39868;53.398;6.564;2022-07-12T02:25:44;18.50;75.80
53962;DHT22;39868;53.398;6.564;2022-07-12T02:28:11;18.40;75.90
53962;DHT22;39868;53.398;6.564;2022-07-12T02:30:39;18.40;76.00
53962;DHT22;39868;53.398;6.564;2022-07-12T02:33:07;18.40;75.90
53962;DHT22;39868;53.398;6.564;2022-07-12T02:35:34;18.40;76.00
53962;DHT22;39868;53.398;6.564;2022-07-12T02:38:02;18.40;76.00
53962;DHT22;39868;53.398;6.564;2022-07-12T02:40:29;18.40;76.00
53962;DHT22;39868;53.398;6.564;2022-07-12T02:43:15;18.40;76.10
53962;DHT22;39868;53.398;6.564;2022-07-12T02:45:42;18.40;76.20
53962;DHT22;39868;53.398;6.564;2022-07-12T02:48:10;18.40;76.10
53962;DHT22;39868;53.398;6.564;2022-07-12T02:50:39;18.40;76.20
53962;DHT22;39868;53.398;6.564;2022-07-12T02:53:08;18.40;76.30
53962;DHT22;39868;53.398;6.564;2022-07-12T02:55:36;18.40;76.30
53962;DHT22;39868;53.398;6.564;2022-07-12T02:58:04;18.40;76.40
53962;DHT22;39868;53.398;6.564;2022-07-12T03:00:33;18.40;76.40
53962;DHT22;39868;53.398;6.564;2022-07-12T03:03:01;18.40;76.40
53962;DHT22;39868;53.398;6.564;2022-07-12T03:05:29;18.40;76.40
53962;DHT22;39868;53.398;6.564;2022-07-12T03:07:58;18.40;76.50
53962;DHT22;39868;53.398;6.564;2022-07-12T03:10:25;18.40;76.50
53962;DHT22;39868;53.398;6.564;2022-07-12T03:12:53;18.40;76.50
53962;DHT22;39868;53.398;6.564;2022-07-12T03:15:21;18.40;76.50
53962;DHT22;39868;53.398;6.564;2022-07-12T03:17:48;18.40;76.50
53962;DHT22;39868;53.398;6.564;2022-07-12T03:20:16;18.40;76.50
53962;DHT22;39868;53.398;6.564;2022-07-12T03:22:44;18.40;76.50
53962;DHT22;39868;53.398;6.564;2022-07-12T03:25:16;18.40;76.50
53962;DHT22;39868;53.398;6.564;2022-07-12T03:27:43;18.40;76.50
53962;DHT22;39868;53.398;6.564;2022-07-12T03:30:12;18.40;76.50
53962;DHT22;39868;53.398;6.564;2022-07-12T03:32:40;18.40;76.50
53962;DHT22;39868;53.398;6.564;2022-07-12T03:35:08;18.40;76.50
53962;DHT22;39868;53.398;6.564;2022-07-12T03:40:08;18.40;76.70
53962;DHT22;39868;53.398;6.564;2022-07-12T03:42:35;18.40;76.60
53962;DHT22;39868;53.398;6.564;2022-07-12T03:45:03;18.40;76.70
53962;DHT22;39868;53.398;6.564;2022-07-12T03:47:31;18.40;76.70
53962;DHT22;39868;53.398;6.564;2022-07-12T03:49:58;18.40;76.70
53962;DHT22;39868;53.398;6.564;2022-07-12T03:52:26;18.40;76.70
53962;DHT22;39868;53.398;6.564;2022-07-12T03:54:53;18.40;76.60
53962;DHT22;39868;53.398;6.564;2022-07-12T03:57:21;18.40;76.60
53962;DHT22;39868;53.398;6.564;2022-07-12T03:59:48;18.40;76.70
53962;DHT22;39868;53.398;6.564;2022-07-12T04:02:15;18.40;76.60
53962;DHT22;39868;53.398;6.564;2022-07-12T04:04:43;18.40;76.60
53962;DHT22;39868;53.398;6.564;2022-07-12T04:07:10;18.40;76.70
53962;DHT22;39868;53.398;6.564;2022-07-12T04:09:38;18.40;76.70
53962;DHT22;39868;53.398;6.564;2022-07-12T04:12:06;18.40;76.70
53962;DHT22;39868;53.398;6.564;2022-07-12T04:14:33;18.40;76.70
53962;DHT22;39868;53.398;6.564;2022-07-12T04:17:01;18.40;76.80
53962;DHT22;39868;53.398;6.564;2022-07-12T04:19:28;18.40;76.80
53962;DHT22;39868;53.398;6.564;2022-07-12T04:21:59;18.50;76.90
53962;DHT22;39868;53.398;6.564;2022-07-12T04:24:26;18.40;76.90
53962;DHT22;39868;53.398;6.564;2022-07-12T04:26:53;18.50;76.90
53962;DHT22;39868;53.398;6.564;2022-07-12T04:29:21;18.50;76.90
53962;DHT22;39868;53.398;6.564;2022-07-12T04:31:49;18.50;76.90
53962;DHT22;39868;53.398;6.564;2022-07-12T04:34:17;18.50;76.90
53962;DHT22;39868;53.398;6.564;2022-07-12T04:36:45;18.50;77.00
53962;DHT22;39868;53.398;6.564;2022-07-12T04:39:12;18.50;77.00
53962;DHT22;39868;53.398;6.564;2022-07-12T04:41:40;18.60;77.00
53962;DHT22;39868;53.398;6.564;2022-07-12T04:44:08;18.50;77.00
53962;DHT22;39868;53.398;6.564;2022-07-12T04:46:35;18.50;76.90
53962;DHT22;39868;53.398;6.564;2022-07-12T04:49:03;18.60;77.00
53962;DHT22;39868;53.398;6.564;2022-07-12T04:51:30;18.60;76.90
53962;DHT22;39868;53.398;6.564;2022-07-12T04:53:58;18.60;76.90
53962;DHT22;39868;53.398;6.564;2022-07-12T04:56:25;18.60;76.80
53962;DHT22;39868;53.398;6.564;2022-07-12T04:58:53;18.60;76.90
53962;DHT22;39868;53.398;6.564;2022-07-12T05:01:30;18.60;76.90
53962;DHT22;39868;53.398;6.564;2022-07-12T05:03:58;18.60;77.00
53962;DHT22;39868;53.398;6.564;2022-07-12T05:06:26;18.60;77.00
53962;DHT22;39868;53.398;6.564;2022-07-12T05:08:53;18.60;76.90
53962;DHT22;39868;53.398;6.564;2022-07-12T05:11:20;18.60;76.90
53962;DHT22;39868;53.398;6.564;2022-07-12T05:13:48;18.60;76.90
53962;DHT22;39868;53.398;6.564;2022-07-12T05:16:16;18.60;76.90
53962;DHT22;39868;53.398;6.564;2022-07-12T05:18:44;18.60;76.90
53962;DHT22;39868;53.398;6.564;2022-07-12T05:21:11;18.70;76.90
53962;DHT22;39868;53.398;6.564;2022-07-12T05:23:39;18.70;76.90
53962;DHT22;39868;53.398;6.564;2022-07-12T05:26:06;18.70;76.90
53962;DHT22;39868;53.398;6.564;2022-07-12T05:28:40;18.70;76.90
53962;DHT22;39868;53.398;6.564;2022-07-12T05:31:10;18.70;76.90
53962;DHT22;39868;53.398;6.564;2022-07-12T05:33:38;18.70;76.90
53962;DHT22;39868;53.398;6.564;2022-07-12T05:36:05;18.70;76.80
53962;DHT22;39868;53.398;6.564;2022-07-12T05:38:33;18.80;76.80
53962;DHT22;39868;53.398;6.564;2022-07-12T05:41:00;18.70;76.80
53962;DHT22;39868;53.398;6.564;2022-07-12T05:43:27;18.70;76.90
53962;DHT22;39868;53.398;6.564;2022-07-12T05:45:55;18.80;76.90
53962;DHT22;39868;53.398;6.564;2022-07-12T05:48:23;18.80;76.90
53962;DHT22;39868;53.398;6.564;2022-07-12T05:50:50;18.80;76.90
53962;DHT22;39868;53.398;6.564;2022-07-12T05:53:18;18.80;76.90
53962;DHT22;39868;53.398;6.564;2022-07-12T05:55:53;18.80;76.90
53962;DHT22;39868;53.398;6.564;2022-07-12T05:58:21;18.90;77.00
53962;DHT22;39868;53.398;6.564;2022-07-12T06:00:48;18.90;77.10
53962;DHT22;39868;53.398;6.564;2022-07-12T06:03:16;18.90;77.10
53962;DHT22;39868;53.398;6.564;2022-07-12T06:05:44;18.90;77.10
53962;DHT22;39868;53.398;6.564;2022-07-12T06:08:11;18.90;77.10
53962;DHT22;39868;53.398;6.564;2022-07-12T06:10:38;19.00;77.20
53962;DHT22;39868;53.398;6.564;2022-07-12T06:13:06;19.00;77.20
53962;DHT22;39868;53.398;6.564;2022-07-12T06:15:33;19.00;77.10
53962;DHT22;39868;53.398;6.564;2022-07-12T06:18:02;19.10;77.10
53962;DHT22;39868;53.398;6.564;2022-07-12T06:20:30;19.10;77.10
53962;DHT22;39868;53.398;6.564;2022-07-12T06:22:57;19.10;77.10
53962;DHT22;39868;53.398;6.564;2022-07-12T06:25:25;19.20;77.10
53962;DHT22;39868;53.398;6.564;2022-07-12T06:28:09;19.20;77.00
53962;DHT22;39868;53.398;6.564;2022-07-12T06:30:36;19.20;77.10
53962;DHT22;39868;53.398;6.564;2022-07-12T06:33:04;19.30;77.10
53962;DHT22;39868;53.398;6.564;2022-07-12T06:35:32;19.30;77.10
53962;DHT22;39868;53.398;6.564;2022-07-12T06:38:01;19.30;77.10
53962;DHT22;39868;53.398;6.564;2022-07-12T06:40:29;19.30;77.10
53962;DHT22;39868;53.398;6.564;2022-07-12T06:42:57;19.40;77.20
53962;DHT22;39868;53.398;6.564;2022-07-12T06:45:25;19.40;77.20
53962;DHT22;39868;53.398;6.564;2022-07-12T06:47:53;19.40;77.10
53962;DHT22;39868;53.398;6.564;2022-07-12T06:50:20;19.50;77.10
53962;DHT22;39868;53.398;6.564;2022-07-12T06:52:48;19.50;77.10
53962;DHT22;39868;53.398;6.564;2022-07-12T06:55:16;19.60;77.10
53962;DHT22;39868;53.398;6.564;2022-07-12T06:57:43;19.60;77.10
53962;DHT22;39868;53.398;6.564;2022-07-12T07:00:10;19.70;77.20
53962;DHT22;39868;53.398;6.564;2022-07-12T07:02:38;19.70;77.10
53962;DHT22;39868;53.398;6.564;2022-07-12T07:05:08;19.80;77.20
53962;DHT22;39868;53.398;6.564;2022-07-12T07:07:38;19.80;77.20
53962;DHT22;39868;53.398;6.564;2022-07-12T07:10:05;19.90;77.20
53962;DHT22;39868;53.398;6.564;2022-07-12T07:12:33;19.90;77.10
53962;DHT22;39868;53.398;6.564;2022-07-12T07:15:00;20.00;77.00
53962;DHT22;39868;53.398;6.564;2022-07-12T07:17:27;20.10;76.90
53962;DHT22;39868;53.398;6.564;2022-07-12T07:19:55;20.10;76.90
53962;DHT22;39868;53.398;6.564;2022-07-12T07:22:22;20.20;76.90
53962;DHT22;39868;53.398;6.564;2022-07-12T07:24:50;20.30;77.10
53962;DHT22;39868;53.398;6.564;2022-07-12T07:27:17;20.40;77.30
53962;DHT22;39868;53.398;6.564;2022-07-12T07:29:44;20.50;77.50
53962;DHT22;39868;53.398;6.564;2022-07-12T07:32:30;20.60;77.60
53962;DHT22;39868;53.398;6.564;2022-07-12T07:34:58;20.70;77.50
53962;DHT22;39868;53.398;6.564;2022-07-12T07:37:25;20.80;77.30
53962;DHT22;39868;53.398;6.564;2022-07-12T07:39:53;20.90;77.20
53962;DHT22;39868;53.398;6.564;2022-07-12T07:42:20;21.00;77.10
53962;DHT22;39868;53.398;6.564;2022-07-12T07:44:47;21.20;77.10
53962;DHT22;39868;53.398;6.564;2022-07-12T07:47:48;21.30;77.10
53962;DHT22;39868;53.398;6.564;2022-07-12T07:50:36;21.40;77.10
53962;DHT22;39868;53.398;6.564;2022-07-12T07:53:04;21.50;77.00
53962;DHT22;39868;53.398;6.564;2022-07-12T07:55:32;21.60;76.80
53962;DHT22;39868;53.398;6.564;2022-07-12T07:57:59;21.70;76.50
53962;DHT22;39868;53.398;6.564;2022-07-12T08:00:28;21.80;76.60
53962;DHT22;39868;53.398;6.564;2022-07-12T08:02:56;21.90;76.50
53962;DHT22;39868;53.398;6.564;2022-07-12T08:05:23;22.00;76.20
53962;DHT22;39868;53.398;6.564;2022-07-12T08:07:55;22.10;76.40
53962;DHT22;39868;53.398;6.564;2022-07-12T08:10:24;22.20;76.30
53962;DHT22;39868;53.398;6.564;2022-07-12T08:12:52;22.30;76.20
53962;DHT22;39868;53.398;6.564;2022-07-12T08:15:19;22.40;76.10
53962;DHT22;39868;53.398;6.564;2022-07-12T08:17:46;22.50;76.00
53962;DHT22;39868;53.398;6.564;2022-07-12T08:20:20;22.60;75.60
53962;DHT22;39868;53.398;6.564;2022-07-12T08:23:09;22.60;75.40
53962;DHT22;39868;53.398;6.564;2022-07-12T08:25:37;22.80;75.50
53962;DHT22;39868;53.398;6.564;2022-07-12T08:28:04;22.80;75.30
53962;DHT22;39868;53.398;6.564;2022-07-12T08:30:32;22.90;75.40
53962;DHT22;39868;53.398;6.564;2022-07-12T08:32:59;22.90;75.00
53962;DHT22;39868;53.398;6.564;2022-07-12T08:35:27;22.90;75.10
53962;DHT22;39868;53.398;6.564;2022-07-12T08:37:55;23.00;75.20
53962;DHT22;39868;53.398;6.564;2022-07-12T08:40:23;23.00;74.80
53962;DHT22;39868;53.398;6.564;2022-07-12T08:42:50;23.10;74.70
53962;DHT22;39868;53.398;6.564;2022-07-12T08:45:18;23.10;74.60
53962;DHT22;39868;53.398;6.564;2022-07-12T08:47:45;23.10;74.60
53962;DHT22;39868;53.398;6.564;2022-07-12T08:52:46;23.20;75.10
53962;DHT22;39868;53.398;6.564;2022-07-12T08:57:51;23.40;74.60
53962;DHT22;39868;53.398;6.564;2022-07-12T09:00:20;23.50;74.70
53962;DHT22;39868;53.398;6.564;2022-07-12T09:02:55;23.50;74.40
53962;DHT22;39868;53.398;6.564;2022-07-12T09:05:24;23.60;74.40
53962;DHT22;39868;53.398;6.564;2022-07-12T09:08:04;23.60;74.10
53962;DHT22;39868;53.398;6.564;2022-07-12T09:10:33;23.70;73.70
53962;DHT22;39868;53.398;6.564;2022-07-12T09:13:00;23.80;74.00
53962;DHT22;39868;53.398;6.564;2022-07-12T09:15:28;23.90;74.00
53962;DHT22;39868;53.398;6.564;2022-07-12T09:18:02;23.90;74.20
53962;DHT22;39868;53.398;6.564;2022-07-12T09:20:34;24.00;73.70
53962;DHT22;39868;53.398;6.564;2022-07-12T09:23:06;24.00;73.30
53962;DHT22;39868;53.398;6.564;2022-07-12T09:25:34;24.10;73.70
53962;DHT22;39868;53.398;6.564;2022-07-12T09:28:06;24.20;74.30
53962;DHT22;39868;53.398;6.564;2022-07-12T09:30:34;24.20;73.10
53962;DHT22;39868;53.398;6.564;2022-07-12T09:33:05;24.20;74.10
53962;DHT22;39868;53.398;6.564;2022-07-12T09:36:08;24.30;73.10
53962;DHT22;39868;53.398;6.564;2022-07-12T09:38:53;24.40;73.20
53962;DHT22;39868;53.398;6.564;2022-07-12T09:41:21;24.40;73.60
53962;DHT22;39868;53.398;6.564;2022-07-12T09:43:50;24.50;72.90
53962;DHT22;39868;53.398;6.564;2022-07-12T09:46:17;24.60;72.60
53962;DHT22;39868;53.398;6.564;2022-07-12T09:48:46;24.60;72.30
53962;DHT22;39868;53.398;6.564;2022-07-12T09:51:15;24.70;72.60
53962;DHT22;39868;53.398;6.564;2022-07-12T09:53:48;24.70;73.30
53962;DHT22;39868;53.398;6.564;2022-07-12T09:56:17;24.80;72.80
53962;DHT22;39868;53.398;6.564;2022-07-12T09:58:54;24.80;72.70
53962;DHT22;39868;53.398;6.564;2022-07-12T10:01:22;25.00;73.10
53962;DHT22;39868;53.398;6.564;2022-07-12T10:03:51;25.00;71.90
53962;DHT22;39868;53.398;6.564;2022-07-12T10:06:29;25.10;72.10
53962;DHT22;39868;53.398;6.564;2022-07-12T10:09:02;25.30;72.00
53962;DHT22;39868;53.398;6.564;2022-07-12T10:11:32;25.30;71.40
53962;DHT22;39868;53.398;6.564;2022-07-12T10:14:20;25.40;71.30
53962;DHT22;39868;53.398;6.564;2022-07-12T10:16:51;25.50;69.90
53962;DHT22;39868;53.398;6.564;2022-07-12T10:19:32;25.50;69.30
53962;DHT22;39868;53.398;6.564;2022-07-12T10:22:07;25.60;69.70
53962;DHT22;39868;53.398;6.564;2022-07-12T10:24:47;25.70;69.50
53962;DHT22;39868;53.398;6.564;2022-07-12T10:30:17;25.80;69.70
53962;DHT22;39868;53.398;6.564;2022-07-12T10:32:45;25.80;70.20
53962;DHT22;39868;53.398;6.564;2022-07-12T10:35:16;25.90;69.60
53962;DHT22;39868;53.398;6.564;2022-07-12T10:40:41;26.00;69.90
53962;DHT22;39868;53.398;6.564;2022-07-12T10:43:14;26.10;69.70
53962;DHT22;39868;53.398;6.564;2022-07-12T10:45:43;26.10;69.70
53962;DHT22;39868;53.398;6.564;2022-07-12T10:53:35;26.20;68.20
53962;DHT22;39868;53.398;6.564;2022-07-12T10:56:18;26.30;68.20
53962;DHT22;39868;53.398;6.564;2022-07-12T10:58:58;26.40;68.40
53962;DHT22;39868;53.398;6.564;2022-07-12T11:01:29;26.40;67.80
53962;DHT22;39868;53.398;6.564;2022-07-12T11:04:08;26.40;67.70
53962;DHT22;39868;53.398;6.564;2022-07-12T11:06:39;26.50;67.70
53962;DHT22;39868;53.398;6.564;2022-07-12T11:09:11;26.50;67.70
53962;DHT22;39868;53.398;6.564;2022-07-12T11:11:47;26.50;67.60
53962;DHT22;39868;53.398;6.564;2022-07-12T11:14:26;26.50;67.10
53962;DHT22;39868;53.398;6.564;2022-07-12T11:16:54;26.50;67.10
53962;DHT22;39868;53.398;6.564;2022-07-12T11:19:25;26.60;67.40
53962;DHT22;39868;53.398;6.564;2022-07-12T11:21:53;26.50;67.10
53962;DHT22;39868;53.398;6.564;2022-07-12T11:24:29;26.60;66.70
53962;DHT22;39868;53.398;6.564;2022-07-12T11:26:58;26.60;66.30
53962;DHT22;39868;53.398;6.564;2022-07-12T11:29:29;26.60;65.80
53962;DHT22;39868;53.398;6.564;2022-07-12T11:32:01;26.70;65.90
53962;DHT22;39868;53.398;6.564;2022-07-12T11:34:36;26.70;66.40
53962;DHT22;39868;53.398;6.564;2022-07-12T11:37:04;26.80;67.10
53962;DHT22;39868;53.398;6.564;2022-07-12T11:39:36;26.90;67.40
53962;DHT22;39868;53.398;6.564;2022-07-12T11:42:05;26.90;67.20
53962;DHT22;39868;53.398;6.564;2022-07-12T11:44:50;27.00;66.10
53962;DHT22;39868;53.398;6.564;2022-07-12T11:47:20;27.10;65.90
53962;DHT22;39868;53.398;6.564;2022-07-12T11:49:50;27.10;65.70
53962;DHT22;39868;53.398;6.564;2022-07-12T11:52:20;27.20;65.60
53962;DHT22;39868;53.398;6.564;2022-07-12T11:54:48;27.30;64.70
53962;DHT22;39868;53.398;6.564;2022-07-12T11:57:20;27.40;63.40
53962;DHT22;39868;53.398;6.564;2022-07-12T11:59:48;27.40;64.80
53962;DHT22;39868;53.398;6.564;2022-07-12T12:02:16;27.50;64.50
53962;DHT22;39868;53.398;6.564;2022-07-12T12:04:54;27.50;63.60
53962;DHT22;39868;53.398;6.564;2022-07-12T12:07:24;27.60;62.10
53962;DHT22;39868;53.398;6.564;2022-07-12T12:10:16;27.60;63.40
53962;DHT22;39868;53.398;6.564;2022-07-12T12:12:51;27.70;64.30
53962;DHT22;39868;53.398;6.564;2022-07-12T12:15:21;27.70;63.30
53962;DHT22;39868;53.398;6.564;2022-07-12T12:18:00;27.80;64.50
53962;DHT22;39868;53.398;6.564;2022-07-12T12:20:31;27.80;62.70
53962;DHT22;39868;53.398;6.564;2022-07-12T12:23:03;27.90;62.30
53962;DHT22;39868;53.398;6.564;2022-07-12T12:25:32;28.00;62.50
53962;DHT22;39868;53.398;6.564;2022-07-12T12:28:04;28.00;62.70
53962;DHT22;39868;53.398;6.564;2022-07-12T12:30:54;28.10;62.20
53962;DHT22;39868;53.398;6.564;2022-07-12T12:33:35;28.10;62.50
53962;DHT22;39868;53.398;6.564;2022-07-12T12:36:23;28.20;62.60
53962;DHT22;39868;53.398;6.564;2022-07-12T12:38:56;28.30;62.80
53962;DHT22;39868;53.398;6.564;2022-07-12T12:41:25;28.30;62.10
53962;DHT22;39868;53.398;6.564;2022-07-12T12:44:01;28.40;62.10
53962;DHT22;39868;53.398;6.564;2022-07-12T12:46:51;28.50;61.50
53962;DHT22;39868;53.398;6.564;2022-07-12T12:49:46;28.60;62.50
53962;DHT22;39868;53.398;6.564;2022-07-12T12:52:21;28.70;61.50
53962;DHT22;39868;53.398;6.564;2022-07-12T12:54:49;28.70;62.10
53962;DHT22;39868;53.398;6.564;2022-07-12T12:57:16;28.80;61.20
53962;DHT22;39868;53.398;6.564;2022-07-12T12:59:44;28.90;61.10
53962;DHT22;39868;53.398;6.564;2022-07-12T13:02:12;28.90;61.00
53962;DHT22;39868;53.398;6.564;2022-07-12T13:04:40;29.00;60.60
53962;DHT22;39868;53.398;6.564;2022-07-12T13:07:08;29.00;60.70
53962;DHT22;39868;53.398;6.564;2022-07-12T13:09:40;29.00;60.90
53962;DHT22;39868;53.398;6.564;2022-07-12T13:12:08;29.10;60.40
53962;DHT22;39868;53.398;6.564;2022-07-12T13:14:36;29.10;59.00
53962;DHT22;39868;53.398;6.564;2022-07-12T13:17:04;29.00;60.00
53962;DHT22;39868;53.398;6.564;2022-07-12T13:19:33;29.00;59.20
53962;DHT22;39868;53.398;6.564;2022-07-12T13:22:00;29.00;59.40
53962;DHT22;39868;53.398;6.564;2022-07-12T13:24:27;29.00;59.30
53962;DHT22;39868;53.398;6.564;2022-07-12T13:26:55;28.90;59.30
53962;DHT22;39868;53.398;6.564;2022-07-12T13:29:22;28.90;58.90
53962;DHT22;39868;53.398;6.564;2022-07-12T13:31:50;28.90;59.30
53962;DHT22;39868;53.398;6.564;2022-07-12T13:34:23;28.80;59.70
53962;DHT22;39868;53.398;6.564;2022-07-12T13:36:51;28.80;59.30
53962;DHT22;39868;53.398;6.564;2022-07-12T13:39:19;28.80;58.50
53962;DHT22;39868;53.398;6.564;2022-07-12T13:42:05;28.70;58.80
53962;DHT22;39868;53.398;6.564;2022-07-12T13:44:33;28.70;58.30
53962;DHT22;39868;53.398;6.564;2022-07-12T13:47:00;28.60;58.70
53962;DHT22;39868;53.398;6.564;2022-07-12T13:49:27;28.60;58.70
53962;DHT22;39868;53.398;6.564;2022-07-12T13:51:55;28.50;57.90
53962;DHT22;39868;53.398;6.564;2022-07-12T13:54:22;28.50;58.50
53962;DHT22;39868;53.398;6.564;2022-07-12T13:56:50;28.40;57.60
53962;DHT22;39868;53.398;6.564;2022-07-12T13:59:17;28.40;57.90
53962;DHT22;39868;53.398;6.564;2022-07-12T14:01:45;28.40;58.00
53962;DHT22;39868;53.398;6.564;2022-07-12T14:04:12;28.40;57.10
53962;DHT22;39868;53.398;6.564;2022-07-12T14:06:40;28.40;58.00
53962;DHT22;39868;53.398;6.564;2022-07-12T14:09:07;28.30;57.80
53962;DHT22;39868;53.398;6.564;2022-07-12T14:11:35;28.30;58.40
53962;DHT22;39868;53.398;6.564;2022-07-12T14:14:03;28.30;58.60
53962;DHT22;39868;53.398;6.564;2022-07-12T14:16:30;28.30;58.60
53962;DHT22;39868;53.398;6.564;2022-07-12T14:18:58;28.30;58.50
53962;DHT22;39868;53.398;6.564;2022-07-12T14:21:26;28.20;58.50
53962;DHT22;39868;53.398;6.564;2022-07-12T14:23:54;28.20;58.20
53962;DHT22;39868;53.398;6.564;2022-07-12T14:26:22;28.20;57.60
53962;DHT22;39868;53.398;6.564;2022-07-12T14:28:49;28.10;57.30
53962;DHT22;39868;53.398;6.564;2022-07-12T14:31:16;28.20;57.10
53962;DHT22;39868;53.398;6.564;2022-07-12T14:33:44;28.10;56.90
53962;DHT22;39868;53.398;6.564;2022-07-12T14:36:11;28.10;57.70
53962;DHT22;39868;53.398;6.564;2022-07-12T14:38:39;28.10;57.20
53962;DHT22;39868;53.398;6.564;2022-07-12T14:41:07;28.00;57.10
53962;DHT22;39868;53.398;6.564;2022-07-12T14:43:37;28.00;56.90
53962;DHT22;39868;53.398;6.564;2022-07-12T14:46:04;28.00;57.70
53962;DHT22;39868;53.398;6.564;2022-07-12T14:48:32;27.90;57.60
53962;DHT22;39868;53.398;6.564;2022-07-12T14:50:59;27.90;57.50
53962;DHT22;39868;53.398;6.564;2022-07-12T14:53:26;27.90;57.20
53962;DHT22;39868;53.398;6.564;2022-07-12T14:55:54;27.90;57.10
53962;DHT22;39868;53.398;6.564;2022-07-12T14:58:21;27.80;56.70
53962;DHT22;39868;53.398;6.564;2022-07-12T15:00:49;27.80;56.80
53962;DHT22;39868;53.398;6.564;2022-07-12T15:03:16;27.80;57.80
53962;DHT22;39868;53.398;6.564;2022-07-12T15:05:44;27.70;56.70
53962;DHT22;39868;53.398;6.564;2022-07-12T15:08:13;27.70;56.80
53962;DHT22;39868;53.398;6.564;2022-07-12T15:10:40;27.70;56.70
53962;DHT22;39868;53.398;6.564;2022-07-12T15:13:07;27.60;56.60
53962;DHT22;39868;53.398;6.564;2022-07-12T15:15:35;27.60;57.00
53962;DHT22;39868;53.398;6.564;2022-07-12T15:18:02;27.60;56.60
53962;DHT22;39868;53.398;6.564;2022-07-12T15:20:30;27.50;57.10
53962;DHT22;39868;53.398;6.564;2022-07-12T15:23:00;27.50;57.00
53962;DHT22;39868;53.398;6.564;2022-07-12T15:25:28;27.50;56.90
53962;DHT22;39868;53.398;6.564;2022-07-12T15:27:55;27.40;56.80
53962;DHT22;39868;53.398;6.564;2022-07-12T15:30:22;27.40;56.00
53962;DHT22;39868;53.398;6.564;2022-07-12T15:32:50;27.40;56.60
53962;DHT22;39868;53.398;6.564;2022-07-12T15:35:20;27.40;56.30
53962;DHT22;39868;53.398;6.564;2022-07-12T15:37:47;27.30;56.50
53962;DHT22;39868;53.398;6.564;2022-07-12T15:40:15;27.30;56.60
53962;DHT22;39868;53.398;6.564;2022-07-12T15:42:43;27.30;56.50
53962;DHT22;39868;53.398;6.564;2022-07-12T15:45:10;27.30;56.50
53962;DHT22;39868;53.398;6.564;2022-07-12T15:47:39;27.30;57.10
53962;DHT22;39868;53.398;6.564;2022-07-12T15:50:07;27.30;57.20
53962;DHT22;39868;53.398;6.564;2022-07-12T15:52:35;27.20;57.10
53962;DHT22;39868;53.398;6.564;2022-07-12T15:55:21;27.20;57.00
53962;DHT22;39868;53.398;6.564;2022-07-12T15:57:49;27.20;57.30
53962;DHT22;39868;53.398;6.564;2022-07-12T16:00:16;27.10;57.30
53962;DHT22;39868;53.398;6.564;2022-07-12T16:02:43;27.10;57.30